createdAt,value
2023-02-28T00:01:59.033Z,59.05500814220748
2023-02-28T00:06:55.252Z,61.711495177968
2023-02-28T00:11:51.569Z,61.18157013405486
2023-02-28T00:16:48.792Z,63.06788755879922
2023-02-28T00:21:45.049Z,60.426378041041424
2023-02-28T00:26:41.293Z,60.04312239702582
2023-02-28T00:31:37.557Z,61.57186996547401
2023-02-28T00:36:34.808Z,64.12627271728192
2023-02-28T00:41:31.157Z,62.054165462138684
2023-02-28T00:46:27.410Z,61.95390794568616
2023-02-28T00:51:23.606Z,62.12211047909309
2023-02-28T00:56:19.866Z,63.368130380963706
2023-02-28T01:01:16.141Z,62.39945898751684
2023-02-28T01:06:12.344Z,62.49512251344298
2023-02-28T01:11:09.623Z,64.01555934254277
2023-02-28T01:16:05.985Z,62.84355266120809
2023-02-28T01:21:04.102Z,64.95541691482205
2023-02-28T01:26:05.423Z,63.44048452001812
2023-02-28T01:36:10.028Z,63.56643514889057
2023-02-28T01:41:06.158Z,63.9947014495787
2023-02-28T01:46:03.460Z,65.91396624810861
2023-02-28T01:51:03.610Z,65.00068833755543
2023-02-28T01:56:00.875Z,67.24500194948375
2023-02-28T02:00:58.139Z,65.22748606873128
2023-02-28T02:05:55.405Z,63.847631197924684
2023-02-28T02:10:54.648Z,64.19980048083907
2023-02-28T02:16:00.954Z,64.77815585846265
2023-02-28T02:21:23.085Z,63.06336470392626
2023-02-28T02:26:34.310Z,61.62759163931124
2023-02-28T02:31:44.610Z,63.41147210070937
2023-02-28T02:36:47.755Z,63.26859094528794
2023-02-28T02:41:52.031Z,62.84214279443685
2023-02-28T02:46:53.330Z,63.01346469665701
2023-02-28T02:51:52.525Z,64.4269492905643
2023-02-28T02:56:50.744Z,64.07452572548756
2023-02-28T03:01:51.003Z,62.72283398305977
2023-02-28T03:06:47.269Z,63.816773055372515
2023-02-28T03:11:45.498Z,62.39516889116064
2023-02-28T03:16:58.717Z,61.289059949450255
2023-02-28T03:22:06.970Z,61.62536297669401
2023-02-28T03:27:07.181Z,63.79391546898027
2023-02-28T03:32:09.580Z,64.51408388214
2023-02-28T03:37:10.754Z,60.89074351697223
2023-02-28T03:42:13.968Z,61.76813309061866
2023-02-28T03:47:15.233Z,62.872239662948104
2023-02-28T03:52:12.439Z,61.73087668518771
2023-02-28T03:57:14.732Z,62.82344364158125
2023-02-28T04:02:11.958Z,61.80382612077455
2023-02-28T04:07:09.245Z,61.31706479559811
2023-02-28T04:12:06.492Z,63.259699170649654
2023-02-28T04:17:02.728Z,62.329732658204634
2023-02-28T04:21:58.974Z,60.84651584681176
2023-02-28T04:26:56.234Z,61.95654809254028
2023-02-28T04:31:52.651Z,65.07500444764189
2023-02-28T04:36:54.412Z,63.42326425187668
2023-02-28T04:46:55.260Z,61.88660620587004
2023-02-28T04:51:50.501Z,63.315644104561684
2023-02-28T04:56:46.757Z,63.44958610890622
2023-02-28T05:01:47.043Z,65.9542529730206
2023-02-28T05:06:43.303Z,64.52701081246742
2023-02-28T05:11:40.618Z,64.57318705381788
2023-02-28T05:16:36.853Z,67.77141114719609
2023-02-28T05:21:34.126Z,65.97793370675738
2023-02-28T05:26:31.297Z,65.75421405218715
2023-02-28T05:31:28.203Z,65.8185465165042
2023-02-28T05:36:24.823Z,67.36834176255782
2023-02-28T05:41:21.134Z,67.48039961218961
2023-02-28T05:46:17.365Z,69.03378608480085
2023-02-28T05:51:13.608Z,69.2249888030756
2023-02-28T05:56:09.884Z,69.32972750876691
2023-02-28T06:01:12.126Z,69.64955525520661
2023-02-28T06:06:08.385Z,69.98976107820192
2023-02-28T06:11:04.592Z,69.49212893850007
2023-02-28T06:16:01.899Z,69.79564126066596
2023-02-28T06:20:59.167Z,69.34161990440705
2023-02-28T06:25:55.412Z,70.20826924580761
2023-02-28T06:30:51.715Z,69.7042593153906
2023-02-28T06:35:47.995Z,68.81648003190338
2023-02-28T06:40:44.155Z,69.0717963681942
2023-02-28T06:45:43.461Z,68.63412208549805
2023-02-28T06:50:39.693Z,68.79364263554909
2023-02-28T06:55:37.952Z,69.10151935568196
2023-02-28T07:00:36.202Z,68.36243919035535
2023-02-28T07:05:32.513Z,68.18053205704496
2023-02-28T07:10:28.732Z,68.28151871178517
2023-02-28T07:15:24.986Z,67.55989241603815
2023-02-28T07:20:21.229Z,67.40194543721458
2023-02-28T07:25:17.515Z,66.4797035833452
2023-02-28T07:30:13.751Z,68.83560089537612
2023-02-28T07:35:09.975Z,69.87700340118771
2023-02-28T07:40:12.275Z,67.57843927025087
2023-02-28T07:45:09.513Z,68.28712394866518
2023-02-28T07:50:06.740Z,68.35302593209525
2023-02-28T07:55:03.031Z,67.67291978371811
2023-02-28T07:59:59.284Z,67.57707590908521
2023-02-28T08:04:55.692Z,68.39236272894085
2023-02-28T08:09:51.803Z,67.7135446353145
2023-02-28T08:14:48.084Z,67.89369890455309
2023-02-28T08:19:46.328Z,68.34777629466197
2023-02-28T08:24:42.595Z,69.01627060982648
2023-02-28T08:29:38.839Z,68.29150431230646
2023-02-28T08:34:39.117Z,68.05673619052256
2023-02-28T08:39:35.365Z,67.54625273392236
2023-02-28T08:44:31.632Z,68.82723241974668
2023-02-28T08:49:28.881Z,69.17880730290108
2023-02-28T08:54:25.139Z,69.8115937492816
2023-02-28T08:59:21.407Z,69.89973143020065
2023-02-28T09:04:20.667Z,70.09758749830594
2023-02-28T09:09:17.940Z,69.67368520346618
2023-02-28T09:14:14.125Z,71.88681726071279
2023-02-28T09:19:11.397Z,69.75564339637226
2023-02-28T09:24:08.683Z,70.05539821825325
2023-02-28T09:29:04.938Z,72.10777962491018
2023-02-28T09:34:01.293Z,71.13628523541959
2023-02-28T09:38:57.461Z,71.63865676591799
2023-02-28T09:43:56.673Z,70.8095185340659
2023-02-28T09:48:53.975Z,70.6227311469836
2023-02-28T09:53:56.710Z,69.42596706160656
2023-02-28T09:58:58.441Z,71.10327404234324
2023-02-28T10:04:00.713Z,71.68136905332327
2023-02-28T10:09:01.915Z,71.42361714780941
2023-02-28T10:14:01.165Z,71.67445942568217
2023-02-28T10:19:02.405Z,70.1646113908388
2023-02-28T10:24:03.731Z,71.06529966318868
2023-02-28T10:29:00.947Z,72.02049160338396
2023-02-28T10:34:00.216Z,71.409425493948
2023-02-28T10:38:57.498Z,71.94966009422579
2023-02-28T10:44:00.713Z,72.36206516125009
2023-02-28T10:49:01.941Z,72.3702682130245
2023-02-28T10:54:03.169Z,72.30928457337154
2023-02-28T10:59:01.420Z,70.42347798562388
2023-02-28T11:04:01.696Z,70.67964844109669
2023-02-28T11:08:58.920Z,72.70898607623546
2023-02-28T11:14:03.165Z,73.1706152237174
2023-02-28T11:19:02.422Z,72.49242762950185
2023-02-28T11:24:01.682Z,71.08178188779766
2023-02-28T11:29:03.902Z,71.92403117523233
2023-02-28T11:34:01.223Z,72.22862434892397
2023-02-28T11:38:59.436Z,71.66892218535499
2023-02-28T11:44:10.626Z,72.54502976492212
2023-02-28T11:49:21.937Z,72.97982423630519
2023-02-28T11:54:27.154Z,72.99190226301441
2023-02-28T11:59:41.327Z,72.01502330274556
2023-02-28T12:04:52.574Z,74.4829843929902
2023-02-28T12:10:05.794Z,72.71464763447202
2023-02-28T12:15:22.979Z,72.63920275650061
2023-02-28T12:20:34.190Z,72.28649021862503
2023-02-28T12:25:49.387Z,71.85753019322993
2023-02-28T12:30:54.678Z,72.07657027736329
2023-02-28T12:35:58.939Z,72.07024425634573
2023-02-28T12:41:03.151Z,72.85422279552013
2023-02-28T12:46:11.647Z,73.46668555653075
2023-02-28T12:51:13.629Z,73.8552945317214
2023-02-28T12:56:20.875Z,74.19948644063574
2023-02-28T13:01:37.120Z,74.04673069834192
2023-02-28T13:06:52.288Z,74.48883363883094
2023-02-28T13:11:56.521Z,74.08219594806368
2023-02-28T13:16:58.830Z,74.29740944811947
2023-02-28T13:22:01.062Z,74.6479157589012
2023-02-28T13:27:13.176Z,74.33336756416612
2023-02-28T13:32:20.480Z,74.40415623267111
2023-02-28T13:37:30.706Z,73.77560844422518
2023-02-28T13:42:33.882Z,75.8086559642344
2023-02-28T13:47:45.127Z,76.79951014508146
2023-02-28T13:52:54.363Z,74.84438834350408
2023-02-28T13:58:08.612Z,75.2827435312467
2023-02-28T14:03:26.863Z,74.25201061953356
2023-02-28T14:08:29.037Z,76.089415066855
2023-02-28T14:13:38.205Z,75.7690068854443
2023-02-28T14:18:48.963Z,76.12009425928194
2023-02-28T14:24:02.714Z,75.55734354663966
2023-02-28T14:29:08.922Z,76.34398379044679
2023-02-28T14:34:26.141Z,75.47091625928644
2023-02-28T14:39:29.389Z,76.89283853952016
2023-02-28T14:44:30.641Z,76.86361417514715
2023-02-28T14:49:31.886Z,75.69323684584916
2023-02-28T14:54:33.123Z,76.95399729353691
2023-02-28T14:59:34.344Z,76.65477303627549
2023-02-28T15:04:36.733Z,78.50733406892793
2023-02-28T15:09:41.863Z,77.50656312626599
2023-02-28T15:14:52.070Z,77.22402512952249
2023-02-28T15:19:55.375Z,76.76065263781182
2023-02-28T15:24:58.578Z,76.36112513741641
2023-02-28T15:35:19.986Z,76.52546156501313
2023-02-28T15:40:24.233Z,75.74629804633592
2023-02-28T15:45:27.477Z,75.58408239267492
2023-02-28T15:50:31.069Z,74.43622560783798
2023-02-28T15:55:28.952Z,76.02632706118857
2023-02-28T16:00:33.226Z,77.1780990527783
2023-02-28T16:05:35.464Z,77.36996686855866
2023-02-28T16:10:35.701Z,78.97033286522493
2023-02-28T16:15:43.936Z,78.09993275802498
2023-02-28T16:20:46.167Z,77.8559033392463
2023-02-28T16:25:46.446Z,77.62387619066406
2023-02-28T16:30:47.776Z,77.98565412721113
2023-02-28T16:35:47.925Z,78.31423713357923
2023-02-28T16:40:50.151Z,78.59697909293227
2023-02-28T16:45:55.493Z,77.86693166468585
2023-02-28T16:50:52.663Z,78.24302199820046
2023-02-28T16:55:52.963Z,76.99242010960968
2023-02-28T17:00:54.225Z,78.05688601895969
2023-02-28T17:05:54.410Z,78.00426458768688
2023-02-28T17:10:56.636Z,77.77452147651367
2023-02-28T17:15:57.120Z,77.95163905655775
2023-02-28T17:21:02.147Z,77.1717648078143
2023-02-28T17:26:03.378Z,76.1880699820742
2023-02-28T17:31:05.696Z,75.76195041818033
2023-02-28T17:36:06.879Z,75.5456112246726
2023-02-28T17:41:07.171Z,76.68271658841653
2023-02-28T17:46:14.439Z,76.63140905825429
2023-02-28T17:51:15.594Z,76.02381929971793
2023-02-28T17:56:16.933Z,76.22160474277679
2023-02-28T18:01:14.168Z,77.68859944606665
2023-02-28T18:06:15.339Z,76.89831278818176
2023-02-28T18:11:15.627Z,75.92232081259974
2023-02-28T18:16:16.017Z,76.55525999240298
2023-02-28T18:21:17.116Z,77.29013474008599
2023-02-28T18:26:18.377Z,77.17785891728161
2023-02-28T18:31:19.638Z,77.408926443492
2023-02-28T18:36:24.839Z,77.15832448113692
2023-02-28T18:46:35.363Z,77.18816086908552
2023-02-28T18:51:38.545Z,77.12394660907958
2023-02-28T18:56:39.799Z,77.76213506956472
2023-02-28T19:01:46.054Z,77.06751553595767
2023-02-28T19:06:46.295Z,77.23228365102302
2023-02-28T19:11:47.517Z,76.2804715666967
2023-02-28T19:16:49.842Z,75.94566828830698
2023-02-28T19:21:47.005Z,75.27932559727954
2023-02-28T19:26:48.259Z,75.55710605410172
2023-02-28T19:31:44.552Z,75.3651820826103
2023-02-28T19:36:45.810Z,75.2249454827937
2023-02-28T19:41:43.060Z,75.33446349600989
2023-02-28T19:46:38.297Z,75.65509818944088
2023-02-28T19:51:35.571Z,74.41621146117072
2023-02-28T19:56:32.057Z,74.71005682083609
2023-02-28T20:01:28.140Z,74.56666091410325
2023-02-28T20:06:31.506Z,74.73370536539903
2023-02-28T20:11:27.584Z,73.33478263556104
2023-02-28T20:16:31.175Z,73.67504706298672
2023-02-28T20:21:32.075Z,73.4996502228239
2023-02-28T20:26:30.671Z,73.57901440385817
2023-02-28T20:31:26.586Z,73.40814369813577
2023-02-28T20:36:31.032Z,72.48972286311493
2023-02-28T20:41:31.104Z,74.56383355277
2023-02-28T20:46:28.740Z,73.10329823594833
2023-02-28T20:51:26.658Z,72.38431526449308
2023-02-28T20:56:28.228Z,73.17655794920637
2023-02-28T21:01:31.133Z,73.89684983881934
2023-02-28T21:06:32.633Z,72.49199548915526
2023-02-28T21:11:33.586Z,74.025875396389
2023-02-28T21:16:37.449Z,73.65227856957239
2023-02-28T21:21:40.084Z,73.93578663879025
2023-02-28T21:26:42.347Z,72.77011982685927
2023-02-28T21:31:43.566Z,73.63556563826879
2023-02-28T21:36:45.985Z,73.11701107620712
2023-02-28T21:41:50.044Z,73.0157690066258
2023-02-28T21:46:52.365Z,72.62321481975346
2023-02-28T21:51:53.503Z,73.64024552128603
2023-02-28T21:56:54.802Z,75.02708100450778
2023-02-28T22:01:55.153Z,74.52235302357629
2023-02-28T22:06:56.263Z,74.81180176554547
2023-02-28T22:11:56.557Z,74.41396375268086
2023-02-28T22:16:58.143Z,73.96399386763412
2023-02-28T22:21:59.069Z,73.90594424964152
2023-02-28T22:26:59.230Z,73.17048198593413
2023-02-28T22:32:00.540Z,73.21359863176076
2023-02-28T22:37:00.804Z,72.73552491667317
2023-02-28T22:42:01.022Z,73.52036958353841
2023-02-28T22:47:02.251Z,74.0230061733272
2023-02-28T22:52:02.508Z,74.75396006346979
2023-02-28T22:57:02.767Z,75.46396615713218
2023-02-28T23:02:03.992Z,75.31773809956175
2023-02-28T23:07:06.256Z,74.2313564336804
2023-02-28T23:12:07.507Z,73.69951608098881
2023-02-28T23:17:07.745Z,75.04995439820549
2023-02-28T23:22:04.027Z,75.93311043012358
2023-02-28T23:27:05.269Z,75.28228850579457
2023-02-28T23:32:01.687Z,75.3224943893511
2023-02-28T23:42:02.139Z,76.07091753337794
2023-02-28T23:46:58.308Z,75.64474144247227
2023-02-28T23:51:54.667Z,75.34541826639335
2023-02-28T23:56:51.780Z,75.35660839863172
